saweddings.co.za
saweddings.co.za
×
saweddings.co.za

Less is not dull and boring, especially when it comes to minimalist weddings. Minimalism is both an understated and timeless wedding look that we're loving this season. Scroll down for some instant inspiration and a few 'must-have' ideas to incorporate into your big day planning!

Magnificent Minimalist Stationery

Start off with invitations that will give your guests a sneak peek of your minimalist wedding day. Stationery that's black and white, all white or perhaps even with a marble interlude. This will not only set the tone but also serves as the pinnacle point that depicts the rest of your wedding decor.

http://images.saweddings.co.za/modules/2/15/14/21514/be7a586c-4a2a-4a74-8a39-e95b5b2b18fd-m.jpg?v=1485341520
http://images.saweddings.co.za/modules/2/15/14/21514/be7a586c-4a2a-4a74-8a39-e95b5b2b18fd-m.jpg?v=1485341520
http://images.saweddings.co.za/modules/2/15/14/21514/be7a586c-4a2a-4a74-8a39-e95b5b2b18fd-l.jpg?v=1485341520
http://images.saweddings.co.za/modules/2/15/14/21514/be7a586c-4a2a-4a74-8a39-e95b5b2b18fd-l.jpg?v=1485341520
http://images.saweddings.co.za/modules/2/15/14/21514/51cb55c6-e82a-406f-876e-b48cb0907aa0-m.jpg?v=1485341520
http://images.saweddings.co.za/modules/2/15/14/21514/51cb55c6-e82a-406f-876e-b48cb0907aa0-m.jpg?v=1485341520
http://images.saweddings.co.za/modules/2/15/14/21514/51cb55c6-e82a-406f-876e-b48cb0907aa0-l.jpg?v=1485341520
http://images.saweddings.co.za/modules/2/15/14/21514/51cb55c6-e82a-406f-876e-b48cb0907aa0-l.jpg?v=1485341520
http://images.saweddings.co.za/modules/2/15/14/21514/99b24f5f-5618-4835-8672-1887ba30e657-m.jpg?v=1485341520
http://images.saweddings.co.za/modules/2/15/14/21514/99b24f5f-5618-4835-8672-1887ba30e657-m.jpg?v=1485341520
http://images.saweddings.co.za/modules/2/15/14/21514/99b24f5f-5618-4835-8672-1887ba30e657-l.jpg?v=1485341520
http://images.saweddings.co.za/modules/2/15/14/21514/99b24f5f-5618-4835-8672-1887ba30e657-l.jpg?v=1485341520

Transparent Minimalist Seating

While your ever-popular tiffany chairs are currently the gold standard of wedding seating, why not try a more contemporary design? Ghost chairs are a stunning and sleek alternative to put your minimalist wedding decor plans into full swing!

http://images.saweddings.co.za/modules/2/15/16/21516/e0bbe118-052e-4236-8e0f-810dbbe62b12-m.jpg?v=1485342000
http://images.saweddings.co.za/modules/2/15/16/21516/e0bbe118-052e-4236-8e0f-810dbbe62b12-m.jpg?v=1485342000
http://images.saweddings.co.za/modules/2/15/16/21516/e0bbe118-052e-4236-8e0f-810dbbe62b12-l.jpg?v=1485342000
http://images.saweddings.co.za/modules/2/15/16/21516/e0bbe118-052e-4236-8e0f-810dbbe62b12-l.jpg?v=1485342000

Simplistic Minimalist Tablewear

You always want to leave a strong impression and we love the look of natural white ceramics paired with gorgeous gold flatware. These two combined together creates an understated, ultra-modern look.

http://images.saweddings.co.za/modules/2/15/18/21518/5041c9c2-7e8f-4f1c-800f-33086d964850-m.jpg?v=1485342540
http://images.saweddings.co.za/modules/2/15/18/21518/5041c9c2-7e8f-4f1c-800f-33086d964850-m.jpg?v=1485342540
http://images.saweddings.co.za/modules/2/15/18/21518/5041c9c2-7e8f-4f1c-800f-33086d964850-m.jpg?v=1485342540
http://images.saweddings.co.za/modules/2/15/18/21518/5041c9c2-7e8f-4f1c-800f-33086d964850-m.jpg?v=1485342540
http://images.saweddings.co.za/modules/2/15/18/21518/f16db3cd-9d7c-479a-ac69-8cdefcb1b6c7-m.jpg?v=1485342540
http://images.saweddings.co.za/modules/2/15/18/21518/f16db3cd-9d7c-479a-ac69-8cdefcb1b6c7-m.jpg?v=1485342540
http://images.saweddings.co.za/modules/2/15/18/21518/f16db3cd-9d7c-479a-ac69-8cdefcb1b6c7-l.jpg?v=1485342540
http://images.saweddings.co.za/modules/2/15/18/21518/f16db3cd-9d7c-479a-ac69-8cdefcb1b6c7-l.jpg?v=1485342540
http://images.saweddings.co.za/modules/2/15/18/21518/518d0d0a-1588-4693-945e-f194e74e738e-m.jpg?v=1485342540
http://images.saweddings.co.za/modules/2/15/18/21518/518d0d0a-1588-4693-945e-f194e74e738e-m.jpg?v=1485342540
http://images.saweddings.co.za/modules/2/15/18/21518/518d0d0a-1588-4693-945e-f194e74e738e-m.jpg?v=1485342540
http://images.saweddings.co.za/modules/2/15/18/21518/518d0d0a-1588-4693-945e-f194e74e738e-m.jpg?v=1485342540

Ultimate Minimalist Backdrop

While many wedding ceremony backdrops are arranged with dozens of florals and are usually very lush, we are loving the simplistic look that is a statement in itself. You can pair a plain but striking backdrop with decor items like eucalyptus and candles to create that intimate ambiance that every bride craves.

http://images.saweddings.co.za/modules/2/15/20/21520/b987e0c9-1032-44fc-969d-5f06f454050a-m.jpg?v=1485342960
http://images.saweddings.co.za/modules/2/15/20/21520/b987e0c9-1032-44fc-969d-5f06f454050a-m.jpg?v=1485342960
http://images.saweddings.co.za/modules/2/15/20/21520/b987e0c9-1032-44fc-969d-5f06f454050a-m.jpg?v=1485342960
http://images.saweddings.co.za/modules/2/15/20/21520/b987e0c9-1032-44fc-969d-5f06f454050a-m.jpg?v=1485342960
http://images.saweddings.co.za/modules/2/15/20/21520/5620f1f4-741e-4c20-93e7-48966727918e-m.jpg?v=1485342960
http://images.saweddings.co.za/modules/2/15/20/21520/5620f1f4-741e-4c20-93e7-48966727918e-m.jpg?v=1485342960
http://images.saweddings.co.za/modules/2/15/20/21520/5620f1f4-741e-4c20-93e7-48966727918e-m.jpg?v=1485342960
http://images.saweddings.co.za/modules/2/15/20/21520/5620f1f4-741e-4c20-93e7-48966727918e-m.jpg?v=1485342960
http://images.saweddings.co.za/modules/2/15/20/21520/9cd5fc0c-ec96-434a-89b9-5715463d9d2b-m.jpg?v=1485342960
http://images.saweddings.co.za/modules/2/15/20/21520/9cd5fc0c-ec96-434a-89b9-5715463d9d2b-m.jpg?v=1485342960
http://images.saweddings.co.za/modules/2/15/20/21520/9cd5fc0c-ec96-434a-89b9-5715463d9d2b-l.jpg?v=1485342960
http://images.saweddings.co.za/modules/2/15/20/21520/9cd5fc0c-ec96-434a-89b9-5715463d9d2b-l.jpg?v=1485342960
http://images.saweddings.co.za/modules/2/15/20/21520/ab8b9fab-8e35-4b03-95d2-dcca665d47d7-m.jpg?v=1485342960
http://images.saweddings.co.za/modules/2/15/20/21520/ab8b9fab-8e35-4b03-95d2-dcca665d47d7-m.jpg?v=1485342960
http://images.saweddings.co.za/modules/2/15/20/21520/ab8b9fab-8e35-4b03-95d2-dcca665d47d7-l.jpg?v=1485342960
http://images.saweddings.co.za/modules/2/15/20/21520/ab8b9fab-8e35-4b03-95d2-dcca665d47d7-l.jpg?v=1485342960
http://images.saweddings.co.za/modules/2/15/21/21521/88e37ae6-3f3d-4be9-b09e-920055d381c3-m.jpg?v=1485343140
http://images.saweddings.co.za/modules/2/15/21/21521/88e37ae6-3f3d-4be9-b09e-920055d381c3-m.jpg?v=1485343140
http://images.saweddings.co.za/modules/2/15/21/21521/88e37ae6-3f3d-4be9-b09e-920055d381c3-l.jpg?v=1485343140
http://images.saweddings.co.za/modules/2/15/21/21521/88e37ae6-3f3d-4be9-b09e-920055d381c3-l.jpg?v=1485343140

Modern Minimalist Wedding Dress

Throw tradition out the window; old are the days of French lace and the poofy wedding gown. An elegant white dress with a modern silhouette is all a minimalist bride needs in the style department!

http://images.saweddings.co.za/modules/2/15/23/21523/fd80ac3c-3120-425f-bd27-ad0345827c62-m.jpg?v=1485343620
http://images.saweddings.co.za/modules/2/15/23/21523/fd80ac3c-3120-425f-bd27-ad0345827c62-m.jpg?v=1485343620
http://images.saweddings.co.za/modules/2/15/23/21523/fd80ac3c-3120-425f-bd27-ad0345827c62-l.jpg?v=1485343620
http://images.saweddings.co.za/modules/2/15/23/21523/fd80ac3c-3120-425f-bd27-ad0345827c62-l.jpg?v=1485343620
http://images.saweddings.co.za/modules/2/15/23/21523/f5a36efb-1598-405c-a4f2-41cd6773e3f5-m.jpg?v=1485343620
http://images.saweddings.co.za/modules/2/15/23/21523/f5a36efb-1598-405c-a4f2-41cd6773e3f5-m.jpg?v=1485343620
http://images.saweddings.co.za/modules/2/15/23/21523/f5a36efb-1598-405c-a4f2-41cd6773e3f5-l.jpg?v=1485343620
http://images.saweddings.co.za/modules/2/15/23/21523/f5a36efb-1598-405c-a4f2-41cd6773e3f5-l.jpg?v=1485343620
http://images.saweddings.co.za/modules/2/15/23/21523/901b2424-e620-4b68-9b00-baf1547c2195-m.jpg?v=1485343620
http://images.saweddings.co.za/modules/2/15/23/21523/901b2424-e620-4b68-9b00-baf1547c2195-m.jpg?v=1485343620
http://images.saweddings.co.za/modules/2/15/23/21523/901b2424-e620-4b68-9b00-baf1547c2195-l.jpg?v=1485343620
http://images.saweddings.co.za/modules/2/15/23/21523/901b2424-e620-4b68-9b00-baf1547c2195-l.jpg?v=1485343620
http://images.saweddings.co.za/modules/2/15/23/21523/116bbce2-22f8-422e-ae0a-7abbe5e956d8-m.jpg?v=1485343620
http://images.saweddings.co.za/modules/2/15/23/21523/116bbce2-22f8-422e-ae0a-7abbe5e956d8-m.jpg?v=1485343620
http://images.saweddings.co.za/modules/2/15/23/21523/116bbce2-22f8-422e-ae0a-7abbe5e956d8-l.jpg?v=1485343620
http://images.saweddings.co.za/modules/2/15/23/21523/116bbce2-22f8-422e-ae0a-7abbe5e956d8-l.jpg?v=1485343620